Hauptseite
METAR-TAF:

METAR-TAF

Flughäfen :

Flughafen Rurrenabaque

Rurrenabaque, Bolivien

Breite: 14-28S, Länge: 067-34W, Höhe: 204 m

Beobachtung

Neuester Wetterbericht von vor 12 Stunden und 30 Minuten, um 22:00 UTC
Windstille
Temperatur 29°C
Luftfeuchtigkeit 62%
Luftdruck 1012 hPa
Sichtweite 10 km oder mehr

METAR: SLRQ 212200Z 00000KT 9999 NSC 29/21 Q1012

Zeit: 06:30 (10:30 UTC)


TAF: fehlend

Wetterbeobachtungen und Prognosen von mehr als 4000 Flughäfen (METAR und TAF Bericht).

Die verfügbaren Stationen werden durch gelbe und rote Markierungen auf der Karte dargestellt.

Führen Sie die Maus auf sie, um den Namen der Station zu sehen.

Darauf klicken, um die Beobachtung von Wetterbeobachtungen und Prognosen zu sehen.

Um die Karte zu ändern : klicken Sie auf den grünen Tasten mit einem schwarzen Kreuz Zum Vergrößern, auf den grünen Button mit einem Gedankenstrich zu verkleinern, oder auf die grünen Pfeile für benachbarte Karten.


METAR-TAF: